Time;durP1;ratioP1;P1;durP2;ratioP2;P2;SDS_P1;SDS_P2;PMS_P1;PMS_P2;Temp;Humidity;BMP_temperature;BMP_pressure;BME280_temperature;BME280_humidity;BME280_pressure;Samples;Min_cycle;Max_cycle;Signal;HPM_P1;HPM_P2
2022/03/26 00:00:08;;;;;;;26.80;16.00;;;;;;;5.39;56.93;97648.21;108072;1270;38213;-75
2022/03/26 00:02:59;;;;;;;28.10;14.50;;;;;;;5.46;57.23;97649.35;108142;1270;34663;-74
2022/03/26 00:05:29;;;;;;;28.30;16.60;;;;;;;5.46;57.19;97645.92;108117;1270;40839;-75
2022/03/26 00:08:00;;;;;;;24.40;15.00;;;;;;;5.36;57.38;97647.77;108028;1270;42985;-74
2022/03/26 00:10:31;;;;;;;26.40;16.60;;;;;;;5.31;58.02;97641.88;108093;1270;40647;-74
2022/03/26 00:13:02;;;;;;;27.80;16.20;;;;;;;5.26;58.22;97645.33;108094;1270;33645;-74
2022/03/26 00:15:33;;;;;;;34.40;18.90;;;;;;;5.26;58.56;97640.27;107954;1272;52146;-74
2022/03/26 00:18:04;;;;;;;21.20;12.80;;;;;;;5.30;58.69;97641.64;108080;1270;42790;-75
2022/03/26 00:20:35;;;;;;;20.60;10.20;;;;;;;5.28;58.66;97639.48;108090;1270;42741;-74
2022/03/26 00:23:06;;;;;;;28.70;14.90;;;;;;;5.20;59.10;97640.45;108024;1270;44416;-75
2022/03/26 00:25:37;;;;;;;28.40;13.80;;;;;;;5.13;59.00;97642.23;108081;1270;31013;-75
2022/03/26 00:28:08;;;;;;;23.30;12.40;;;;;;;5.09;59.58;97639.29;108049;1270;40540;-75
2022/03/26 00:30:39;;;;;;;27.90;14.60;;;;;;;5.09;59.56;97633.19;108059;1270;41100;-75
2022/03/26 00:33:10;;;;;;;23.50;13.00;;;;;;;5.06;59.83;97635.71;108086;1270;35254;-74
2022/03/26 00:35:41;;;;;;;35.30;21.70;;;;;;;5.06;59.88;97631.14;107780;1270;329839;-75
2022/03/26 00:38:12;;;;;;;36.10;24.20;;;;;;;5.00;59.65;97633.98;108099;1270;41268;-74
2022/03/26 00:40:43;;;;;;;38.70;23.20;;;;;;;4.97;59.90;97635.15;108052;1269;43702;-74
2022/03/26 00:43:13;;;;;;;;;;;;;;;4.97;60.07;97629.42;108027;1268;73209;-74
2022/03/26 00:45:45;;;;;;;31.30;17.10;;;;;;;5.02;60.12;97635.02;108059;1270;36813;-74
2022/03/26 00:48:16;;;;;;;38.30;23.10;;;;;;;5.05;59.87;97634.39;108057;1270;36374;-74
2022/03/26 00:50:47;;;;;;;26.30;17.20;;;;;;;5.12;59.75;97627.81;108101;1269;32543;-74
2022/03/26 00:53:17;;;;;;;30.40;17.30;;;;;;;5.19;59.68;97627.60;108054;1270;34988;-74
2022/03/26 00:55:49;;;;;;;28.00;16.10;;;;;;;5.24;59.31;97628.66;108000;1270;32654;-74
2022/03/26 00:58:20;;;;;;;35.90;22.90;;;;;;;5.39;58.91;97622.82;108077;1270;44382;-74
2022/03/26 01:00:51;;;;;;;38.40;20.20;;;;;;;5.46;58.53;97624.73;108098;1270;32574;-74
2022/03/26 01:03:22;;;;;;;37.80;24.40;;;;;;;5.39;58.51;97624.02;108062;1270;38471;-74
2022/03/26 01:05:51;;;;;;;;;;;;;;;5.35;58.48;97625.67;108068;1270;34533;-74
2022/03/26 01:08:22;;;;;;;38.80;23.30;;;;;;;5.33;58.50;97622.95;107949;1271;45294;-74
2022/03/26 01:10:53;;;;;;;37.10;24.40;;;;;;;5.27;58.34;97622.63;107960;1270;43133;-74
2022/03/26 01:13:25;;;;;;;35.40;22.40;;;;;;;5.16;58.10;97619.52;108040;1270;41031;-74
2022/03/26 01:15:56;;;;;;;36.60;23.20;;;;;;;5.03;58.20;97620.98;108018;1270;56539;-74
2022/03/26 01:18:26;;;;;;;37.80;23.30;;;;;;;4.93;58.14;97622.66;108046;1270;41315;-74
2022/03/26 01:20:57;;;;;;;36.20;22.50;;;;;;;4.85;57.97;97624.52;107992;1270;41066;-74
2022/03/26 01:23:28;;;;;;;36.80;23.30;;;;;;;4.82;57.87;97621.23;108046;1270;36216;-74
2022/03/26 01:25:59;;;;;;;32.90;21.00;;;;;;;4.80;57.88;97622.11;107931;1271;40299;-74
2022/03/26 01:28:30;;;;;;;34.00;21.70;;;;;;;4.73;58.16;97621.71;108125;1270;30051;-74
2022/03/26 01:31:01;;;;;;;34.70;21.70;;;;;;;4.72;58.06;97621.35;108158;1270;41815;-74
2022/03/26 01:33:32;;;;;;;33.10;21.20;;;;;;;4.70;58.08;97618.83;108124;1270;44017;-74
2022/03/26 01:36:03;;;;;;;37.00;23.00;;;;;;;4.65;58.07;97618.76;108103;1270;36674;-74
2022/03/26 01:38:33;;;;;;;35.70;20.10;;;;;;;4.59;57.98;97613.87;108137;1270;33863;-74
2022/03/26 01:41:04;;;;;;;37.50;22.60;;;;;;;4.45;58.43;97611.16;108117;1270;30725;-75
2022/03/26 01:43:35;;;;;;;39.90;22.40;;;;;;;4.38;58.50;97609.09;108049;1270;34716;-74
2022/03/26 01:46:10;;;;;;;35.50;21.90;;;;;;;4.29;58.62;97606.73;108048;1270;34605;-74
2022/03/26 01:48:41;;;;;;;37.60;22.30;;;;;;;4.29;58.72;97605.02;108028;1270;42827;-74
2022/03/26 01:51:17;;;;;;;32.30;20.40;;;;;;;4.28;58.62;97605.36;108107;1270;40787;-74
2022/03/26 01:53:51;;;;;;;30.50;19.60;;;;;;;4.14;58.99;97605.81;108057;1270;44992;-74
2022/03/26 01:56:22;;;;;;;33.20;22.20;;;;;;;4.00;59.19;97605.87;108126;1270;33976;-74
2022/03/26 01:58:53;;;;;;;37.30;23.40;;;;;;;3.90;59.38;97605.03;108006;1270;34601;-74
2022/03/26 02:01:24;;;;;;;35.50;19.40;;;;;;;3.90;59.58;97604.04;108063;1270;37660;-74
2022/03/26 02:03:55;;;;;;;33.70;22.50;;;;;;;3.82;59.55;97609.77;108008;1270;39780;-74
2022/03/26 02:06:29;;;;;;;34.30;20.10;;;;;;;3.78;59.78;97603.57;108045;1270;33419;-74
2022/03/26 02:09:01;;;;;;;32.80;20.30;;;;;;;3.83;59.96;97603.56;108149;1270;27619;-74
2022/03/26 02:11:35;;;;;;;32.20;19.80;;;;;;;3.85;59.91;97606.20;108109;1270;42394;-74
2022/03/26 02:14:08;;;;;;;29.60;19.90;;;;;;;3.83;59.97;97605.12;108079;1270;41986;-74
2022/03/26 02:16:42;;;;;;;32.20;19.50;;;;;;;3.78;60.18;97608.89;107998;1270;41435;-74
2022/03/26 02:19:13;;;;;;;36.40;21.40;;;;;;;3.78;60.41;97606.88;108116;1270;31009;-74
2022/03/26 02:21:47;;;;;;;37.70;23.30;;;;;;;3.78;60.35;97606.88;108105;1270;32468;-74
2022/03/26 02:24:18;;;;;;;36.70;22.00;;;;;;;3.80;60.28;97607.04;108126;1270;28981;-74
2022/03/26 02:26:49;;;;;;;38.30;23.10;;;;;;;3.81;60.21;97609.09;108057;1270;44770;-74
2022/03/26 02:29:20;;;;;;;35.30;22.30;;;;;;;3.79;60.21;97606.22;108074;1269;29932;-74
2022/03/26 02:31:51;;;;;;;41.30;24.30;;;;;;;3.83;60.34;97611.63;108090;1270;31263;-74
2022/03/26 02:34:23;;;;;;;35.60;22.80;;;;;;;3.88;60.17;97612.60;108150;1270;33080;-74
2022/03/26 02:36:58;;;;;;;34.50;22.60;;;;;;;3.91;59.99;97614.46;108079;1270;32403;-74
2022/03/26 02:39:29;;;;;;;35.50;21.50;;;;;;;3.88;60.04;97614.05;108160;1270;44213;-74
2022/03/26 02:42:00;;;;;;;34.30;22.20;;;;;;;3.81;59.99;97611.34;108142;1270;28024;-74
2022/03/26 02:44:31;;;;;;;38.70;24.10;;;;;;;3.76;60.25;97612.58;108134;1270;29028;-74
2022/03/26 02:47:01;;;;;;;33.30;21.70;;;;;;;3.72;60.27;97613.41;108104;1270;29026;-74
2022/03/26 02:49:32;;;;;;;38.50;22.50;;;;;;;3.68;60.34;97612.15;108138;1269;43209;-74
2022/03/26 02:52:03;;;;;;;35.10;21.60;;;;;;;3.66;60.38;97613.36;108108;1269;42561;-74
2022/03/26 02:54:35;;;;;;;37.70;22.40;;;;;;;3.72;60.12;97610.42;108073;1270;34389;-75
2022/03/26 02:57:06;;;;;;;34.40;22.40;;;;;;;3.78;59.94;97615.42;107964;1272;32362;-74
2022/03/26 02:59:38;;;;;;;40.00;22.70;;;;;;;3.76;59.91;97612.86;108094;1270;42117;-74
2022/03/26 03:02:09;;;;;;;37.60;23.30;;;;;;;3.75;59.89;97612.30;107988;1270;42371;-74
2022/03/26 03:04:40;;;;;;;39.10;24.40;;;;;;;3.69;59.90;97611.89;108072;1270;42508;-74
2022/03/26 03:07:11;;;;;;;40.20;24.30;;;;;;;3.60;60.23;97607.62;108052;1270;42350;-74
2022/03/26 03:09:42;;;;;;;33.80;23.70;;;;;;;3.51;60.47;97609.48;108085;1269;44170;-74
2022/03/26 03:12:13;;;;;;;34.70;22.00;;;;;;;3.49;60.30;97606.61;108037;1270;35155;-73
2022/03/26 03:14:44;;;;;;;38.60;23.00;;;;;;;3.50;60.21;97607.17;108109;1270;27719;-74
2022/03/26 03:17:15;;;;;;;37.50;22.40;;;;;;;3.48;60.15;97607.17;108094;1270;35143;-74
2022/03/26 03:19:45;;;;;;;33.60;20.60;;;;;;;3.49;60.29;97607.09;108016;1270;34377;-74
2022/03/26 03:22:16;;;;;;;38.00;21.80;;;;;;;3.58;60.04;97611.02;108018;1270;41030;-74
2022/03/26 03:24:47;;;;;;;39.40;23.20;;;;;;;3.64;59.69;97603.44;108051;1270;63570;-74
2022/03/26 03:27:19;;;;;;;35.80;21.80;;;;;;;3.65;59.42;97603.75;107953;1271;44456;-74
2022/03/26 03:29:50;;;;;;;34.10;20.40;;;;;;;3.59;59.34;97604.44;108124;1270;44454;-74
2022/03/26 03:32:20;;;;;;;37.90;21.70;;;;;;;3.67;59.48;97596.80;107902;1270;43472;-73
2022/03/26 03:34:52;;;;;;;37.80;22.20;;;;;;;3.81;59.23;97595.13;108015;1270;44261;-73
2022/03/26 03:37:24;;;;;;;34.40;21.40;;;;;;;3.70;59.04;97593.82;108095;1270;41970;-74
2022/03/26 03:39:55;;;;;;;34.60;21.50;;;;;;;3.63;59.02;97594.13;108112;1270;31711;-73
2022/03/26 03:42:26;;;;;;;32.90;22.20;;;;;;;3.61;59.13;97592.45;107959;1273;43756;-74
2022/03/26 03:44:57;;;;;;;33.60;22.80;;;;;;;3.66;59.32;97589.35;108062;1270;31214;-74
2022/03/26 03:47:28;;;;;;;36.90;22.30;;;;;;;3.67;59.51;97586.65;108061;1270;31173;-73
2022/03/26 03:49:59;;;;;;;32.10;15.40;;;;;;;3.77;59.42;97589.50;108050;1270;42049;-74
2022/03/26 03:52:29;;;;;;;33.30;18.30;;;;;;;3.93;59.63;97590.94;107988;1270;44298;-74
2022/03/26 03:55:00;;;;;;;26.20;16.50;;;;;;;4.12;59.82;97592.19;108173;1270;27934;-73
2022/03/26 03:57:31;;;;;;;29.40;17.50;;;;;;;4.27;59.53;97592.69;108148;1270;41162;-74
2022/03/26 04:00:03;;;;;;;28.70;17.10;;;;;;;4.32;59.59;97592.52;108174;1270;48062;-73
2022/03/26 04:02:34;;;;;;;32.40;18.20;;;;;;;4.36;59.53;97593.02;108141;1270;27612;-74
2022/03/26 04:05:09;;;;;;;32.50;15.50;;;;;;;4.40;59.28;97596.19;107953;1271;46562;-73
2022/03/26 04:07:40;;;;;;;31.00;18.70;;;;;;;4.43;59.37;97594.14;108107;1270;30619;-73
2022/03/26 04:10:12;;;;;;;24.90;15.10;;;;;;;4.41;59.24;97597.10;108099;1270;30834;-74
2022/03/26 04:12:44;;;;;;;31.30;17.70;;;;;;;4.42;59.24;97594.42;107900;1271;47179;-74
2022/03/26 04:15:16;;;;;;;36.20;20.90;;;;;;;4.48;58.90;97598.13;108091;1270;45145;-73
2022/03/26 04:17:49;;;;;;;31.60;16.30;;;;;;;4.52;58.68;97592.73;108070;1270;41220;-74
2022/03/26 04:20:21;;;;;;;34.70;20.00;;;;;;;4.54;58.58;97591.95;108138;1270;40602;-74
2022/03/26 04:22:52;;;;;;;20.00;11.70;;;;;;;4.53;58.57;97586.21;108063;1270;32792;-74
2022/03/26 04:25:22;;;;;;;33.60;22.00;;;;;;;4.62;58.26;97586.27;108040;1270;42411;-74
2022/03/26 04:27:53;;;;;;;34.20;21.60;;;;;;;4.68;57.99;97588.10;107932;1271;33320;-73
2022/03/26 04:30:24;;;;;;;38.30;21.50;;;;;;;4.64;57.92;97590.23;108055;1270;61447;-73
2022/03/26 04:32:55;;;;;;;32.90;20.80;;;;;;;4.54;57.85;97592.27;108090;1270;29155;-73
2022/03/26 04:35:26;;;;;;;32.00;20.90;;;;;;;4.36;57.99;97590.67;108015;1270;50725;-74
2022/03/26 04:37:57;;;;;;;39.90;22.50;;;;;;;4.13;58.20;97588.19;108076;1270;45777;-73
2022/03/26 04:40:29;;;;;;;32.10;21.20;;;;;;;4.10;58.64;97583.89;107974;1270;43687;-74
2022/03/26 04:43:00;;;;;;;28.70;18.90;;;;;;;4.16;58.81;97583.92;108078;1270;43927;-74
2022/03/26 04:45:29;;;;;;;;;;;;;;;4.23;58.61;97583.79;108087;1270;48395;-73
2022/03/26 04:48:00;;;;;;;34.00;21.40;;;;;;;4.26;58.58;97587.13;108098;1270;41192;-74
2022/03/26 04:50:31;;;;;;;31.90;20.00;;;;;;;4.32;58.46;97586.63;108125;1270;34856;-74
2022/03/26 04:53:03;;;;;;;35.60;23.90;;;;;;;4.30;58.36;97587.69;108112;1270;45190;-73
2022/03/26 04:55:34;;;;;;;34.40;22.00;;;;;;;4.32;58.32;97584.17;108012;1270;115447;-74
2022/03/26 04:58:05;;;;;;;34.90;21.70;;;;;;;4.52;58.35;97584.23;107913;1270;116481;-74
2022/03/26 05:00:35;;;;;;;36.20;22.70;;;;;;;4.82;58.21;97584.65;107884;1271;42381;-74
2022/03/26 05:03:06;;;;;;;43.90;25.30;;;;;;;5.11;57.76;97584.71;108003;1270;109903;-74
2022/03/26 05:05:37;;;;;;;34.80;22.30;;;;;;;5.40;57.22;97585.07;107920;1271;114718;-74
2022/03/26 05:08:07;;;;;;;;;;;;;;;5.69;56.87;97586.65;107904;1270;89464;-74
2022/03/26 05:10:37;;;;;;;34.70;22.80;;;;;;;5.93;56.52;97584.67;108035;1270;84904;-75
2022/03/26 05:13:10;;;;;;;30.60;20.80;;;;;;;6.18;55.98;97584.05;108087;1270;51713;-74
2022/03/26 05:15:41;;;;;;;33.50;21.80;;;;;;;6.45;55.23;97586.40;108093;1269;58950;-74
2022/03/26 05:18:13;;;;;;;34.00;21.10;;;;;;;6.72;54.88;97583.80;107957;1270;117528;-74
2022/03/26 05:20:44;;;;;;;36.00;23.90;;;;;;;6.89;54.21;97582.29;108084;1270;80627;-74
2022/03/26 05:23:15;;;;;;;34.00;23.20;;;;;;;7.03;54.00;97581.95;108026;1270;68756;-74
2022/03/26 05:25:46;;;;;;;34.30;23.40;;;;;;;7.22;53.12;97581.44;108058;1270;65129;-73
2022/03/26 05:28:16;;;;;;;36.20;23.60;;;;;;;7.44;52.88;97579.98;108018;1269;85854;-73
2022/03/26 05:30:50;;;;;;;34.00;23.30;;;;;;;7.76;52.54;97581.61;108049;1270;72208;-73
2022/03/26 05:33:21;;;;;;;32.50;22.50;;;;;;;8.03;51.49;97579.71;108079;1270;48967;-73
2022/03/26 05:35:52;;;;;;;35.90;24.00;;;;;;;8.25;50.90;97576.92;108046;1270;56220;-74
2022/03/26 05:38:23;;;;;;;36.30;23.80;;;;;;;8.39;50.22;97572.59;107977;1270;49272;-73
2022/03/26 05:40:54;;;;;;;33.10;24.80;;;;;;;8.75;50.30;97571.65;108038;1270;44442;-74
2022/03/26 05:43:25;;;;;;;31.30;22.80;;;;;;;9.28;49.58;97562.47;107887;1271;44285;-74
2022/03/26 05:45:56;;;;;;;28.90;21.30;;;;;;;9.68;48.58;97571.29;107966;1270;44182;-73
2022/03/26 05:48:27;;;;;;;32.70;23.20;;;;;;;9.94;47.99;97567.91;108024;1270;43242;-74
2022/03/26 05:50:58;;;;;;;35.60;24.50;;;;;;;10.20;47.13;97565.46;107982;1270;41918;-73
2022/03/26 05:53:29;;;;;;;36.30;23.60;;;;;;;10.39;46.49;97560.98;108085;1270;38014;-74
2022/03/26 05:56:00;;;;;;;33.00;23.30;;;;;;;10.68;46.12;97564.94;108084;1270;38696;-74
2022/03/26 05:58:31;;;;;;;33.90;23.90;;;;;;;11.11;44.98;97568.23;108089;1270;33877;-74
2022/03/26 06:01:02;;;;;;;35.20;26.20;;;;;;;11.16;44.32;97564.13;108129;1270;31082;-74
2022/03/26 06:03:33;;;;;;;35.10;24.80;;;;;;;11.32;43.65;97560.47;108137;1270;31732;-74
2022/03/26 06:06:04;;;;;;;28.00;20.80;;;;;;;11.20;42.84;97562.38;108010;1270;41937;-74
2022/03/26 06:08:35;;;;;;;28.50;20.10;;;;;;;10.90;43.01;97560.36;108019;1270;42715;-75
2022/03/26 06:11:06;;;;;;;32.40;17.50;;;;;;;10.76;42.99;97558.90;108022;1270;43354;-74
2022/03/26 06:13:39;;;;;;;34.10;25.10;;;;;;;10.61;43.05;97553.45;108055;1270;40440;-74
2022/03/26 06:16:10;;;;;;;26.50;19.70;;;;;;;10.77;43.42;97546.80;108083;1270;40080;-74
2022/03/26 06:18:42;;;;;;;28.80;21.20;;;;;;;11.00;43.11;97544.45;108136;1270;29592;-74
2022/03/26 06:21:13;;;;;;;29.50;21.70;;;;;;;11.28;42.25;97550.52;108078;1270;40861;-74
2022/03/26 06:23:44;;;;;;;34.70;24.50;;;;;;;11.57;42.04;97549.77;107990;1270;45525;-74
2022/03/26 06:26:15;;;;;;;30.00;21.80;;;;;;;11.84;41.70;97545.20;108076;1270;31780;-74
2022/03/26 06:28:46;;;;;;;30.60;23.60;;;;;;;12.35;41.52;97547.15;108060;1270;32843;-74
2022/03/26 06:31:18;;;;;;;33.50;24.60;;;;;;;12.91;40.73;97544.02;108059;1271;41147;-74
2022/03/26 06:33:49;;;;;;;30.50;23.70;;;;;;;13.25;39.95;97542.81;108005;1270;46939;-74
2022/03/26 06:36:20;;;;;;;33.30;25.50;;;;;;;13.62;39.40;97539.20;108088;1270;30857;-74
2022/03/26 06:38:51;;;;;;;29.40;25.30;;;;;;;13.90;38.55;97535.41;108128;1270;29057;-74
2022/03/26 06:41:24;;;;;;;29.40;23.50;;;;;;;14.27;38.57;97537.16;108078;1270;28573;-74
2022/03/26 06:43:56;;;;;;;28.80;25.50;;;;;;;14.68;37.64;97534.94;107970;1270;44341;-74
2022/03/26 06:46:27;;;;;;;30.90;24.40;;;;;;;15.05;37.36;97543.48;108072;1270;43668;-74
2022/03/26 06:48:58;;;;;;;27.80;22.30;;;;;;;15.66;36.71;97542.39;108091;1270;38384;-74
2022/03/26 06:51:29;;;;;;;28.90;25.10;;;;;;;15.62;35.96;97546.45;108008;1271;33903;-75
2022/03/26 06:54:01;;;;;;;30.40;24.30;;;;;;;15.78;36.35;97545.91;108024;1270;32527;-74
2022/03/26 06:56:33;;;;;;;29.90;23.80;;;;;;;16.35;35.75;97546.90;108153;1270;30889;-74
2022/03/26 06:59:05;;;;;;;31.00;24.00;;;;;;;16.69;34.71;97547.63;108099;1270;40618;-74
2022/03/26 07:01:37;;;;;;;27.90;24.90;;;;;;;16.75;34.57;97552.59;108012;1270;42299;-74
2022/03/26 07:04:08;;;;;;;29.40;23.80;;;;;;;16.90;34.07;97547.23;108050;1270;40796;-75
2022/03/26 07:06:39;;;;;;;27.70;23.30;;;;;;;17.16;33.54;97551.34;108074;1270;58523;-75
2022/03/26 07:09:10;;;;;;;26.20;23.40;;;;;;;17.31;33.38;97549.23;107994;1271;57578;-74
2022/03/26 07:11:41;;;;;;;29.90;24.80;;;;;;;17.60;33.23;97548.13;107989;1271;49471;-75
2022/03/26 07:14:12;;;;;;;26.10;22.30;;;;;;;18.09;32.52;97547.55;108102;1270;32345;-74
2022/03/26 07:16:44;;;;;;;25.30;20.20;;;;;;;18.11;32.25;97548.04;107994;1271;44955;-74
2022/03/26 07:19:16;;;;;;;25.70;22.50;;;;;;;17.57;31.17;97546.27;108114;1270;31693;-75
2022/03/26 07:21:47;;;;;;;25.80;21.10;;;;;;;17.18;32.59;97550.83;108051;1270;50086;-74
2022/03/26 07:24:19;;;;;;;28.80;23.30;;;;;;;17.16;31.73;97542.02;108046;1270;41885;-75
2022/03/26 07:26:50;;;;;;;24.70;19.70;;;;;;;16.86;32.78;97544.63;108041;1270;43363;-74
2022/03/26 07:29:21;;;;;;;26.70;20.80;;;;;;;16.92;31.79;97541.23;108058;1270;39510;-74
2022/03/26 07:31:52;;;;;;;27.80;22.10;;;;;;;16.45;32.15;97548.11;108164;1270;33612;-75
2022/03/26 07:34:23;;;;;;;27.50;24.30;;;;;;;16.11;32.57;97549.11;107995;1271;37171;-75
2022/03/26 07:36:55;;;;;;;30.00;20.80;;;;;;;16.52;32.92;97547.98;108119;1270;34184;-74
2022/03/26 07:39:26;;;;;;;26.10;20.70;;;;;;;16.57;32.15;97551.63;108048;1268;41948;-74
2022/03/26 07:41:57;;;;;;;28.20;20.90;;;;;;;16.58;33.05;97551.14;108088;1270;44657;-75
2022/03/26 07:44:29;;;;;;;29.60;20.20;;;;;;;16.85;32.36;97555.72;107975;1271;39333;-75
2022/03/26 07:47:00;;;;;;;23.60;19.80;;;;;;;16.99;32.99;97560.28;108035;1271;34537;-75
2022/03/26 07:49:32;;;;;;;26.80;21.20;;;;;;;17.95;32.13;97562.09;108002;1271;33746;-74
2022/03/26 07:52:03;;;;;;;24.00;20.60;;;;;;;17.80;31.52;97561.27;108136;1270;30674;-75
2022/03/26 07:54:34;;;;;;;27.00;22.90;;;;;;;18.22;31.98;97564.42;108164;1270;41360;-75
2022/03/26 07:57:06;;;;;;;27.20;22.80;;;;;;;18.83;31.72;97559.79;107934;1271;30561;-76
2022/03/26 07:59:37;;;;;;;30.20;22.50;;;;;;;19.39;30.61;97558.17;108131;1270;42574;-75
2022/03/26 08:02:09;;;;;;;28.30;23.60;;;;;;;19.14;30.21;97552.85;108011;1270;36040;-75
2022/03/26 08:04:40;;;;;;;24.00;20.60;;;;;;;19.32;31.18;97555.77;108052;1270;34484;-75
2022/03/26 08:07:12;;;;;;;23.60;20.80;;;;;;;20.15;30.31;97553.08;108018;1271;41129;-75
2022/03/26 08:09:43;;;;;;;26.60;20.50;;;;;;;20.33;29.82;97553.20;108018;1270;38464;-75
2022/03/26 08:12:14;;;;;;;21.50;19.30;;;;;;;20.36;29.73;97552.90;108079;1271;48042;-74
2022/03/26 08:14:45;;;;;;;23.20;16.20;;;;;;;19.56;29.81;97554.00;108009;1271;45724;-74
2022/03/26 08:17:16;;;;;;;29.60;18.80;;;;;;;18.28;31.13;97551.98;108105;1270;30566;-74
2022/03/26 08:19:47;;;;;;;26.60;18.00;;;;;;;16.68;33.21;97557.70;108098;1270;40426;-74
2022/03/26 08:22:18;;;;;;;23.90;16.10;;;;;;;15.79;35.09;97558.16;107997;1271;39756;-74
2022/03/26 08:24:49;;;;;;;22.40;16.40;;;;;;;15.59;35.88;97559.40;108076;1270;32349;-74
2022/03/26 08:27:20;;;;;;;20.40;12.30;;;;;;;14.76;37.08;97559.94;108065;1271;39861;-75
2022/03/26 08:29:52;;;;;;;24.30;15.40;;;;;;;14.91;37.31;97554.99;108074;1270;31632;-74
2022/03/26 08:32:23;;;;;;;23.30;16.40;;;;;;;15.40;36.85;97559.10;107957;1271;103078;-74
2022/03/26 08:34:54;;;;;;;19.30;15.20;;;;;;;16.32;35.57;97555.56;108069;1270;60582;-74
2022/03/26 08:37:26;;;;;;;21.40;15.50;;;;;;;16.25;35.02;97560.76;108059;1270;40202;-74
2022/03/26 08:39:57;;;;;;;23.30;16.70;;;;;;;16.16;35.14;97559.56;107887;1272;128664;-74
2022/03/26 08:42:28;;;;;;;22.40;13.10;;;;;;;16.13;35.41;97555.38;108105;1270;45505;-74
2022/03/26 08:44:58;;;;;;;22.20;15.20;;;;;;;16.24;35.41;97554.84;108130;1271;42379;-74
2022/03/26 08:47:29;;;;;;;18.40;10.80;;;;;;;16.30;35.57;97551.85;108040;1270;43072;-74
2022/03/26 08:50:00;;;;;;;20.00;13.10;;;;;;;16.24;35.64;97548.73;108059;1270;47259;-74
2022/03/26 08:52:32;;;;;;;17.80;10.40;;;;;;;16.63;35.33;97547.27;108086;1271;42244;-75
2022/03/26 08:55:03;;;;;;;20.00;11.90;;;;;;;16.41;35.07;97532.45;108124;1270;34526;-74
2022/03/26 08:57:34;;;;;;;22.40;14.50;;;;;;;16.02;35.81;97533.60;108069;1271;29492;-74
2022/03/26 09:00:07;;;;;;;19.70;12.20;;;;;;;15.86;36.37;97526.39;108078;1270;44799;-75
2022/03/26 09:02:39;;;;;;;19.40;12.90;;;;;;;15.87;36.57;97532.33;108030;1271;38792;-75
2022/03/26 09:05:12;;;;;;;19.50;13.20;;;;;;;16.29;36.12;97525.48;108056;1271;47697;-74
2022/03/26 09:07:44;;;;;;;23.90;15.50;;;;;;;16.42;36.02;97521.58;108065;1271;46383;-74
2022/03/26 09:10:15;;;;;;;51.80;20.70;;;;;;;16.77;35.56;97527.00;108098;1271;44756;-74
2022/03/26 09:12:46;;;;;;;23.90;15.90;;;;;;;16.83;35.21;97517.08;108084;1270;41132;-74
2022/03/26 09:15:17;;;;;;;16.30;10.70;;;;;;;16.46;35.64;97516.20;108033;1271;53905;-74
2022/03/26 09:17:48;;;;;;;22.30;14.60;;;;;;;15.90;36.19;97508.69;108086;1271;49397;-74
2022/03/26 09:20:19;;;;;;;26.10;17.00;;;;;;;15.22;37.45;97503.33;108036;1271;40418;-74
2022/03/26 09:22:50;;;;;;;25.90;17.80;;;;;;;14.92;38.62;97500.48;108011;1271;48167;-74
2022/03/26 09:25:21;;;;;;;27.60;17.10;;;;;;;14.68;39.10;97495.59;108063;1271;32878;-74
2022/03/26 09:27:52;;;;;;;27.80;18.10;;;;;;;14.20;40.25;97492.16;108033;1271;45600;-74
2022/03/26 09:30:23;;;;;;;15.80;10.60;;;;;;;14.00;40.89;97501.91;108039;1271;46853;-74
2022/03/26 09:32:54;;;;;;;22.00;10.80;;;;;;;13.81;41.43;97500.93;108140;1271;39650;-74
2022/03/26 09:35:26;;;;;;;17.80;11.00;;;;;;;13.62;41.54;97504.02;108025;1271;31262;-74
2022/03/26 09:37:58;;;;;;;21.40;12.40;;;;;;;13.55;41.58;97508.39;108048;1270;33043;-74
2022/03/26 09:40:29;;;;;;;16.80;10.50;;;;;;;13.59;41.93;97500.15;108010;1271;40962;-75
2022/03/26 09:43:00;;;;;;;16.60;10.10;;;;;;;13.46;42.08;97496.17;108065;1270;33248;-74
2022/03/26 09:45:31;;;;;;;23.00;13.20;;;;;;;13.52;41.66;97499.98;108094;1271;33349;-74
2022/03/26 09:48:02;;;;;;;25.20;15.70;;;;;;;13.69;41.37;97495.14;108058;1271;34493;-74
2022/03/26 09:50:34;;;;;;;20.40;12.40;;;;;;;13.76;41.32;97500.10;108060;1271;33237;-74
2022/03/26 09:53:05;;;;;;;22.30;13.10;;;;;;;13.42;41.04;97502.44;108052;1271;43828;-74
2022/03/26 09:55:37;;;;;;;19.30;11.00;;;;;;;13.14;41.57;97496.25;108033;1270;35068;-74
2022/03/26 09:58:09;;;;;;;27.30;11.20;;;;;;;12.93;42.26;97492.11;108003;1270;34824;-74
2022/03/26 10:00:41;;;;;;;21.40;14.30;;;;;;;13.02;42.52;97494.48;107987;1271;43359;-74
2022/03/26 10:03:11;;;;;;;21.70;14.20;;;;;;;13.35;41.98;97489.36;107984;1271;30689;-74
2022/03/26 10:05:43;;;;;;;30.80;12.90;;;;;;;13.58;41.75;97480.02;107992;1271;32543;-74
2022/03/26 10:08:23;;;;;;;22.20;12.40;;;;;;;13.73;41.21;97481.11;107932;1271;34033;-74
2022/03/26 10:10:55;;;;;;;21.80;10.70;;;;;;;13.88;41.46;97479.19;108076;1270;34923;-74
2022/03/26 10:13:42;;;;;;;25.50;14.00;;;;;;;13.98;40.40;97474.70;108025;1270;34580;-74
2022/03/26 10:16:15;;;;;;;18.90;13.10;;;;;;;13.92;40.45;97471.47;108036;1270;33550;-74
2022/03/26 10:18:50;;;;;;;18.70;12.50;;;;;;;14.15;40.26;97462.71;108019;1271;30094;-74
2022/03/26 10:21:23;;;;;;;16.80;10.50;;;;;;;14.35;40.16;97453.88;107988;1271;43334;-75
2022/03/26 10:23:55;;;;;;;21.70;12.90;;;;;;;14.37;39.88;97463.80;108033;1271;32683;-74
2022/03/26 10:26:28;;;;;;;24.20;14.80;;;;;;;14.43;39.45;97452.12;107928;1272;41207;-75
2022/03/26 10:29:00;;;;;;;27.20;15.00;;;;;;;14.39;38.46;97451.35;108000;1271;46428;-75
2022/03/26 10:34:21;;;;;;;24.00;14.90;;;;;;;14.05;39.49;97446.95;107971;1270;51639;-75
2022/03/26 10:37:01;;;;;;;22.80;12.90;;;;;;;14.06;39.47;97439.79;108003;1270;41130;-74
2022/03/26 10:39:33;;;;;;;;;;;;;;;14.15;39.41;97446.02;108084;1271;43373;-74
2022/03/26 10:42:06;;;;;;;16.30;9.30;;;;;;;14.21;39.27;97439.30;108082;1271;36539;-76
2022/03/26 10:44:37;;;;;;;20.90;12.60;;;;;;;14.19;38.42;97446.92;108020;1271;42570;-75
2022/03/26 10:47:15;;;;;;;14.30;7.80;;;;;;;14.31;38.18;97442.94;108011;1270;34631;-75
2022/03/26 10:49:47;;;;;;;17.30;9.60;;;;;;;14.45;38.42;97439.98;107986;1271;50849;-75
2022/03/26 10:52:20;;;;;;;17.50;8.70;;;;;;;14.49;38.27;97434.94;107973;1271;41968;-75
2022/03/26 10:54:51;;;;;;;12.50;7.60;;;;;;;14.50;37.96;97438.36;108034;1270;33948;-75
2022/03/26 10:57:24;;;;;;;10.40;6.20;;;;;;;14.52;38.31;97431.34;107995;1270;44910;-75
2022/03/26 10:59:56;;;;;;;11.50;5.70;;;;;;;14.68;37.68;97431.86;108013;1270;33482;-75
2022/03/26 11:02:27;;;;;;;15.00;8.60;;;;;;;14.71;36.51;97423.86;107941;1271;41105;-75
2022/03/26 11:04:59;;;;;;;16.50;7.50;;;;;;;14.59;36.48;97419.52;108015;1270;29829;-75
2022/03/26 11:07:31;;;;;;;18.60;9.60;;;;;;;14.48;36.36;97417.70;107940;1270;40337;-75
2022/03/26 11:10:04;;;;;;;16.50;7.10;;;;;;;14.58;36.02;97418.84;108003;1270;46916;-76
2022/03/26 11:12:37;;;;;;;14.30;7.30;;;;;;;14.65;35.84;97398.21;107930;1272;36003;-75
2022/03/26 11:15:13;;;;;;;15.80;9.20;;;;;;;14.69;36.08;97410.13;107967;1271;34865;-75
2022/03/26 11:17:59;;;;;;;15.70;8.40;;;;;;;14.82;36.42;97403.61;107965;1270;41698;-75
2022/03/26 11:20:59;;;;;;;9.90;6.50;;;;;;;14.87;35.36;97397.14;108024;1271;47046;-75
2022/03/26 11:23:39;;;;;;;8.70;5.10;;;;;;;14.67;35.78;97383.80;107987;1271;41796;-75
2022/03/26 11:26:29;;;;;;;17.20;8.30;;;;;;;14.75;36.10;97397.40;107962;1270;45268;-75
2022/03/26 11:29:35;;;;;;;11.90;5.60;;;;;;;15.02;35.72;97387.35;107996;1270;41328;-75
2022/03/26 11:32:17;;;;;;;13.10;7.20;;;;;;;15.10;35.22;97385.80;107821;1270;36897;-75
2022/03/26 11:34:58;;;;;;;13.80;7.30;;;;;;;15.00;35.22;97391.70;108073;1270;32327;-75
2022/03/26 11:37:29;;;;;;;14.30;7.60;;;;;;;14.89;35.62;97382.05;108032;1270;40828;-76